Time;durP1;ratioP1;P1;durP2;ratioP2;P2;SDS_P1;SDS_P2;PMS_P1;PMS_P2;Temp;Humidity;BMP_temperature;BMP_pressure;BME280_temperature;BME280_humidity;BME280_pressure;Samples;Min_cycle;Max_cycle;Signal;HPM_P1;HPM_P2
2021/05/19 00:02:08;;;;;;;5.30;2.23;;;18.30;87.20;;;;;;5012664;28;20045;-80
2021/05/19 00:04:34;;;;;;;6.60;2.53;;;18.20;87.20;;;;;;5012650;28;20864;-82
2021/05/19 00:07:00;;;;;;;6.57;2.25;;;18.20;87.00;;;;;;5012808;28;20276;-81
2021/05/19 00:09:26;;;;;;;11.13;2.63;;;18.20;86.90;;;;;;5012549;28;20046;-81
2021/05/19 00:11:52;;;;;;;6.97;2.33;;;18.10;86.80;;;;;;5012794;28;20022;-77
2021/05/19 00:14:19;;;;;;;3.35;1.75;;;18.20;86.80;;;;;;5012522;28;20399;-82
2021/05/19 00:16:47;;;;;;;2.83;1.60;;;18.20;86.80;;;;;;5012647;28;20018;-81
2021/05/19 00:19:14;;;;;;;3.65;1.90;;;18.30;87.10;;;;;;5012643;28;20048;-82
2021/05/19 00:21:40;;;;;;;7.90;1.92;;;18.30;87.40;;;;;;5012705;28;20052;-82
2021/05/19 00:24:08;;;;;;;2.90;1.20;;;18.30;87.80;;;;;;5012556;28;20029;-81
2021/05/19 00:26:34;;;;;;;3.70;1.15;;;18.30;88.30;;;;;;5012603;28;20225;-82
2021/05/19 00:29:00;;;;;;;3.13;1.58;;;18.30;88.70;;;;;;5012658;28;20017;-81
2021/05/19 00:31:32;;;;;;;6.07;1.58;;;18.30;88.80;;;;;;5012697;28;20030;-77
2021/05/19 00:33:58;;;;;;;5.35;1.30;;;18.40;88.70;;;;;;5003271;28;20014;-77
2021/05/19 00:36:25;;;;;;;7.07;1.33;;;18.40;88.70;;;;;;5020862;28;20053;-80
2021/05/19 00:38:53;;;;;;;6.10;1.65;;;18.50;88.90;;;;;;5012371;28;20034;-76
2021/05/19 00:41:19;;;;;;;3.17;1.90;;;18.50;88.90;;;;;;5012262;28;20049;-81
2021/05/19 00:43:45;;;;;;;4.30;2.00;;;18.60;89.00;;;;;;5012450;28;20022;-81
2021/05/19 00:46:12;;;;;;;7.15;1.80;;;18.50;89.20;;;;;;5012380;28;20478;-81
2021/05/19 00:48:38;;;;;;;4.82;2.13;;;18.60;89.30;;;;;;5014703;28;20026;-82
2021/05/19 00:51:06;;;;;;;2.90;1.35;;;18.60;89.50;;;;;;4998390;28;20064;-82
2021/05/19 00:53:33;;;;;;;3.72;1.40;;;18.60;89.50;;;;;;5015942;28;20421;-82
2021/05/19 00:56:00;;;;;;;4.50;1.70;;;18.50;89.60;;;;;;5015865;28;20234;-81
2021/05/19 00:58:28;;;;;;;5.07;1.88;;;18.50;89.90;;;;;;5015953;28;20038;-81
2021/05/19 01:00:54;;;;;;;5.65;2.30;;;18.50;90.00;;;;;;5016045;28;20022;-82
2021/05/19 01:03:31;;;;;;;2.58;1.30;;;18.50;90.00;;;;;;4998198;28;20510;-77
2021/05/19 01:06:01;;;;;;;3.35;1.30;;;18.40;90.20;;;;;;5015648;28;20030;-77
2021/05/19 01:11:19;;;;;;;4.15;1.45;;;18.30;90.40;;;;;;4998087;28;20029;-82
2021/05/19 01:13:46;;;;;;;6.70;1.17;;;18.30;90.60;;;;;;4998042;28;20041;-81
2021/05/19 01:16:15;;;;;;;7.50;1.52;;;18.20;90.80;;;;;;5015532;28;20034;-82
2021/05/19 01:18:42;;;;;;;2.65;1.15;;;18.10;91.00;;;;;;4997977;28;20034;-81
2021/05/19 01:21:10;;;;;;;3.83;1.73;;;18.10;91.20;;;;;;4997964;28;20058;-81
2021/05/19 01:23:38;;;;;;;5.22;1.30;;;17.90;91.50;;;;;;4997898;28;20022;-81
2021/05/19 01:26:08;;;;;;;5.82;1.40;;;17.80;91.80;;;;;;4997925;28;20034;-81
2021/05/19 01:28:34;;;;;;;3.25;1.58;;;17.70;92.00;;;;;;4998015;28;20037;-81
2021/05/19 01:31:01;;;;;;;6.38;1.75;;;17.70;92.10;;;;;;4997621;28;20419;-81
2021/05/19 01:33:29;;;;;;;5.90;2.83;;;17.70;92.20;;;;;;4997814;28;20030;-81
2021/05/19 01:35:56;;;;;;;6.70;1.42;;;17.60;92.30;;;;;;5015238;28;20030;-82
2021/05/19 01:38:22;;;;;;;5.93;1.70;;;17.60;92.50;;;;;;4997683;28;20113;-81
2021/05/19 01:40:48;;;;;;;8.48;1.58;;;17.60;92.50;;;;;;4997427;28;20434;-79
2021/05/19 01:43:14;;;;;;;9.82;1.90;;;17.70;92.60;;;;;;5015692;28;20030;-80
2021/05/19 01:46:02;;;;;;;8.77;1.23;;;17.60;92.60;;;;;;5022598;28;20030;-81
2021/05/19 01:48:31;;;;;;;5.10;1.30;;;17.60;92.80;;;;;;5014926;28;20109;-82
2021/05/19 01:50:57;;;;;;;5.03;1.23;;;17.60;92.80;;;;;;5014951;28;20080;-81
2021/05/19 01:53:25;;;;;;;10.18;1.60;;;17.60;92.80;;;;;;5014991;28;20022;-77
2021/05/19 01:55:52;;;;;;;6.10;1.50;;;17.60;92.80;;;;;;4997190;28;20037;-77
2021/05/19 01:58:18;;;;;;;5.72;1.33;;;17.60;92.80;;;;;;4997094;28;20486;-81
2021/05/19 02:00:45;;;;;;;4.28;1.50;;;17.60;93.10;;;;;;4996015;28;20097;-77
2021/05/19 02:03:13;;;;;;;3.25;1.70;;;17.50;93.00;;;;;;5014617;28;20069;-82
2021/05/19 02:06:00;;;;;;;8.98;1.70;;;17.50;93.20;;;;;;5014486;28;20505;-81
2021/05/19 02:08:29;;;;;;;8.15;1.77;;;17.60;93.30;;;;;;4993585;28;20050;-77
2021/05/19 02:10:55;;;;;;;5.30;1.77;;;17.50;93.30;;;;;;4993795;28;20031;-77
2021/05/19 02:13:21;;;;;;;10.30;1.70;;;17.50;93.30;;;;;;4994990;28;20034;-81
2021/05/19 02:15:50;;;;;;;6.45;1.42;;;17.60;93.30;;;;;;4994840;28;20513;-80
2021/05/19 02:18:20;;;;;;;6.32;1.70;;;17.50;93.30;;;;;;4994848;28;20030;-82
2021/05/19 02:20:45;;;;;;;3.83;1.17;;;17.60;93.50;;;;;;4993495;28;20126;-82
2021/05/19 02:23:12;;;;;;;4.97;1.70;;;17.50;93.50;;;;;;4993435;28;20285;-81
2021/05/19 02:25:39;;;;;;;12.48;1.92;;;17.50;93.60;;;;;;4994750;28;20030;-82
2021/05/19 02:28:05;;;;;;;10.82;2.17;;;17.40;93.60;;;;;;4993213;28;20037;-78
2021/05/19 02:30:39;;;;;;;4.05;1.48;;;17.40;93.80;;;;;;4993209;28;20034;-82
2021/05/19 02:33:13;;;;;;;2.92;1.55;;;17.40;94.00;;;;;;4993164;28;20487;-82
2021/05/19 02:35:40;;;;;;;4.53;1.40;;;17.30;94.10;;;;;;4993199;28;20142;-76
2021/05/19 02:38:07;;;;;;;8.88;2.17;;;17.30;94.30;;;;;;4993008;28;20026;-77
2021/05/19 02:40:33;;;;;;;5.05;1.30;;;17.30;94.40;;;;;;4994496;28;20034;-77
2021/05/19 02:42:59;;;;;;;5.55;1.95;;;17.30;94.60;;;;;;4993036;28;20038;-81
2021/05/19 02:45:30;;;;;;;3.75;1.70;;;17.20;94.80;;;;;;4993154;28;20124;-82
2021/05/19 02:47:56;;;;;;;6.82;2.13;;;17.30;94.90;;;;;;4994342;28;20487;-80
2021/05/19 02:50:22;;;;;;;5.95;2.05;;;17.30;94.90;;;;;;4994133;28;20398;-81
2021/05/19 02:52:48;;;;;;;8.20;2.22;;;17.30;94.90;;;;;;4994724;28;20089;-80
2021/05/19 02:55:16;;;;;;;10.20;1.80;;;17.30;94.90;;;;;;5002771;28;20102;-77
2021/05/19 02:57:42;;;;;;;3.45;1.38;;;17.40;94.80;;;;;;5002058;28;20026;-81
2021/05/19 03:00:08;;;;;;;5.88;1.95;;;17.40;94.80;;;;;;4993929;28;20113;-81
2021/05/19 03:02:34;;;;;;;9.30;1.77;;;17.40;94.80;;;;;;4993984;28;20034;-80
2021/05/19 03:05:00;;;;;;;6.23;2.07;;;17.40;94.90;;;;;;4993761;28;20029;-80
2021/05/19 03:07:26;;;;;;;6.22;1.38;;;17.40;95.00;;;;;;4995811;28;20281;-76
2021/05/19 03:09:52;;;;;;;7.20;1.55;;;17.40;95.00;;;;;;5013396;28;20174;-81
2021/05/19 03:12:18;;;;;;;5.20;1.80;;;17.40;95.00;;;;;;5013187;28;20054;-81
2021/05/19 03:14:44;;;;;;;9.05;1.40;;;17.40;95.00;;;;;;5013512;28;20033;-80
2021/05/19 03:17:10;;;;;;;5.57;1.00;;;17.40;95.00;;;;;;5013470;28;20026;-81
2021/05/19 03:19:35;;;;;;;8.70;2.55;;;17.30;95.10;;;;;;5013396;28;20025;-82
2021/05/19 03:22:01;;;;;;;9.57;2.03;;;17.30;95.20;;;;;;5013099;28;20038;-81
2021/05/19 03:24:27;;;;;;;7.77;1.83;;;17.30;95.30;;;;;;5013200;28;20260;-79
2021/05/19 03:26:53;;;;;;;11.30;1.73;;;17.30;95.40;;;;;;5013338;28;20109;-81
2021/05/19 03:29:19;;;;;;;5.13;1.33;;;17.30;95.50;;;;;;5013118;28;20271;-81
2021/05/19 03:31:45;;;;;;;2.53;1.45;;;17.40;95.50;;;;;;5013089;28;20275;-80
2021/05/19 03:34:11;;;;;;;4.15;1.60;;;17.40;95.50;;;;;;5012984;28;20030;-81
2021/05/19 03:36:37;;;;;;;5.55;2.15;;;17.50;95.50;;;;;;5013028;28;20048;-81
2021/05/19 03:39:07;;;;;;;13.13;1.65;;;17.50;95.50;;;;;;4995337;28;20048;-76
2021/05/19 03:41:33;;;;;;;5.28;1.90;;;17.50;95.40;;;;;;5012928;28;20092;-81
2021/05/19 03:43:59;;;;;;;4.15;2.22;;;17.50;95.40;;;;;;5013097;28;20026;-81
2021/05/19 03:46:25;;;;;;;6.90;1.38;;;17.50;95.50;;;;;;5012849;28;20386;-81
2021/05/19 03:48:53;;;;;;;6.20;1.70;;;17.60;95.50;;;;;;5012960;28;20045;-76
2021/05/19 03:51:20;;;;;;;4.63;1.60;;;17.60;95.60;;;;;;5012717;28;20103;-81
2021/05/19 03:53:47;;;;;;;7.35;1.63;;;17.60;95.60;;;;;;5012703;28;20026;-76
2021/05/19 03:56:14;;;;;;;8.07;1.90;;;17.60;95.60;;;;;;5012728;28;20509;-76
2021/05/19 03:58:42;;;;;;;7.18;1.73;;;17.60;95.90;;;;;;5012888;28;20022;-81
2021/05/19 04:01:08;;;;;;;10.80;1.75;;;17.50;96.10;;;;;;5012832;28;20045;-79
2021/05/19 04:03:34;;;;;;;6.38;1.88;;;17.60;96.20;;;;;;5013111;28;20026;-82
2021/05/19 04:06:01;;;;;;;5.95;1.40;;;17.60;96.30;;;;;;5024125;28;20156;-81
2021/05/19 04:08:38;;;;;;;7.30;1.40;;;17.60;96.40;;;;;;5019007;28;20092;-81
2021/05/19 04:11:06;;;;;;;9.77;1.92;;;17.70;96.50;;;;;;5012606;28;20029;-81
2021/05/19 04:13:32;;;;;;;7.05;2.03;;;17.80;96.60;;;;;;5012689;28;20057;-81
2021/05/19 04:15:58;;;;;;;8.27;2.00;;;17.80;96.50;;;;;;5012550;28;20054;-81
2021/05/19 04:18:24;;;;;;;6.10;2.15;;;17.90;96.40;;;;;;4994942;28;20131;-80
2021/05/19 04:20:50;;;;;;;7.53;1.95;;;17.90;96.30;;;;;;5012817;28;20057;-82
2021/05/19 04:23:17;;;;;;;6.60;2.28;;;18.00;96.30;;;;;;5014408;28;20038;-81
2021/05/19 04:25:43;;;;;;;9.07;1.40;;;18.10;96.30;;;;;;5016601;28;20021;-79
2021/05/19 04:28:10;;;;;;;8.60;1.40;;;18.10;96.30;;;;;;5016547;28;20558;-81
2021/05/19 04:30:36;;;;;;;11.98;1.98;;;18.20;96.30;;;;;;5016453;28;20030;-76
2021/05/19 04:33:03;;;;;;;4.80;1.70;;;18.20;96.40;;;;;;5016242;28;20040;-81
2021/05/19 04:35:29;;;;;;;5.90;1.77;;;18.20;96.40;;;;;;5016362;28;20026;-77
2021/05/19 04:37:55;;;;;;;15.82;2.67;;;18.30;96.60;;;;;;5016373;28;20038;-81
2021/05/19 04:40:21;;;;;;;7.47;2.47;;;18.40;96.70;;;;;;4998492;28;20022;-81
2021/05/19 04:42:48;;;;;;;6.13;2.28;;;18.40;96.80;;;;;;5016226;28;20323;-82
2021/05/19 04:45:14;;;;;;;6.70;2.22;;;18.40;96.80;;;;;;5016184;28;20046;-82
2021/05/19 04:47:40;;;;;;;9.98;3.08;;;18.40;97.00;;;;;;5016102;28;20036;-82
2021/05/19 04:50:08;;;;;;;16.38;2.83;;;18.30;97.20;;;;;;5016000;28;20109;-81
2021/05/19 04:52:34;;;;;;;8.75;1.73;;;18.30;97.40;;;;;;5016065;28;20399;-82
2021/05/19 04:55:03;;;;;;;9.35;1.73;;;18.20;97.70;;;;;;5016034;28;20053;-81
2021/05/19 04:57:30;;;;;;;23.05;2.88;;;18.20;97.90;;;;;;4998367;28;20034;-82
2021/05/19 04:59:57;;;;;;;8.48;2.35;;;18.30;98.00;;;;;;5015850;28;20022;-82
2021/05/19 05:02:23;;;;;;;12.77;3.10;;;18.20;98.10;;;;;;5015679;28;20030;-82
2021/05/19 05:04:50;;;;;;;16.75;4.18;;;18.20;98.20;;;;;;5015760;28;20037;-82
2021/05/19 05:07:16;;;;;;;8.80;3.38;;;18.20;98.40;;;;;;5015449;28;20444;-82
2021/05/19 05:09:47;;;;;;;14.60;3.28;;;18.20;98.50;;;;;;5015691;28;20069;-80
2021/05/19 05:12:13;;;;;;;11.77;2.95;;;18.20;98.60;;;;;;5015535;28;20029;-77
2021/05/19 05:14:40;;;;;;;8.30;2.10;;;18.30;98.70;;;;;;5016417;28;20029;-81
2021/05/19 05:17:06;;;;;;;6.63;2.28;;;18.30;98.80;;;;;;5030484;28;20164;-79
2021/05/19 05:19:32;;;;;;;13.10;2.88;;;18.20;98.80;;;;;;5017299;28;20065;-81
2021/05/19 05:21:58;;;;;;;7.97;2.13;;;18.30;98.80;;;;;;5015266;28;20042;-82
2021/05/19 05:24:24;;;;;;;15.32;2.97;;;18.30;98.80;;;;;;5015294;28;20356;-81
2021/05/19 05:26:50;;;;;;;12.87;3.00;;;18.40;98.80;;;;;;5015348;28;20383;-81
2021/05/19 05:29:15;;;;;;;10.77;3.07;;;18.50;98.50;;;;;;5015349;28;20276;-82
2021/05/19 05:31:41;;;;;;;8.05;2.35;;;18.50;98.50;;;;;;5015326;28;20032;-82
2021/05/19 05:34:07;;;;;;;7.13;2.65;;;18.50;98.40;;;;;;5014890;28;20053;-82
2021/05/19 05:36:33;;;;;;;7.60;2.97;;;18.60;98.20;;;;;;5015270;28;20030;-82
2021/05/19 05:38:59;;;;;;;12.00;2.95;;;18.70;97.40;;;;;;5015170;28;20299;-81
2021/05/19 05:41:25;;;;;;;6.97;2.13;;;18.70;97.20;;;;;;5015251;28;20554;-81
2021/05/19 05:43:51;;;;;;;9.37;2.77;;;18.80;96.80;;;;;;4997820;28;20498;-82
2021/05/19 05:46:17;;;;;;;6.20;1.73;;;18.70;96.90;;;;;;5015058;28;20953;-82
2021/05/19 05:48:42;;;;;;;7.33;1.83;;;18.90;96.90;;;;;;5014937;28;20029;-77
2021/05/19 05:51:09;;;;;;;12.32;3.55;;;19.00;96.50;;;;;;5014841;28;20038;-77
2021/05/19 05:53:34;;;;;;;12.10;2.65;;;19.00;95.60;;;;;;5014802;28;20030;-82
2021/05/19 05:56:00;;;;;;;9.80;2.33;;;19.00;95.00;;;;;;5015098;28;20152;-81
2021/05/19 05:58:26;;;;;;;6.93;1.37;;;19.00;94.60;;;;;;4997357;28;20543;-83
2021/05/19 06:00:52;;;;;;;8.33;2.37;;;19.10;93.60;;;;;;5014740;28;20061;-82
2021/05/19 06:03:18;;;;;;;6.80;2.30;;;19.10;93.00;;;;;;5014624;28;20057;-82
2021/05/19 06:05:44;;;;;;;8.90;2.70;;;19.20;92.30;;;;;;5014615;28;20152;-82
2021/05/19 06:08:09;;;;;;;7.20;2.20;;;19.20;92.20;;;;;;5014300;28;20281;-81
2021/05/19 06:10:35;;;;;;;7.90;1.95;;;19.30;90.90;;;;;;5014668;28;20032;-82
2021/05/19 06:13:01;;;;;;;5.82;1.63;;;19.20;90.20;;;;;;4996861;28;20040;-82
2021/05/19 06:15:27;;;;;;;7.30;1.88;;;19.20;89.20;;;;;;4996930;28;20026;-81
2021/05/19 06:17:53;;;;;;;3.05;1.00;;;19.20;87.10;;;;;;5014394;28;20486;-83
2021/05/19 06:20:19;;;;;;;5.55;1.67;;;19.20;85.30;;;;;;5014133;28;20033;-83
2021/05/19 06:22:46;;;;;;;5.97;1.40;;;19.20;85.70;;;;;;5014263;28;20038;-79
2021/05/19 06:25:12;;;;;;;8.57;1.80;;;19.20;85.50;;;;;;4996779;28;20406;-78
2021/05/19 06:27:39;;;;;;;7.07;1.88;;;19.20;85.30;;;;;;5029031;28;20030;-83
2021/05/19 06:30:06;;;;;;;5.40;1.10;;;19.30;84.10;;;;;;5016094;28;20030;-83
2021/05/19 06:32:31;;;;;;;8.77;1.27;;;19.30;83.10;;;;;;5014298;28;20054;-83
2021/05/19 06:34:58;;;;;;;5.30;1.30;;;19.30;81.60;;;;;;5014056;28;20060;-83
2021/05/19 06:37:24;;;;;;;4.47;1.80;;;19.40;82.00;;;;;;5013929;28;20838;-76
2021/05/19 06:39:50;;;;;;;1.63;0.65;;;19.40;80.00;;;;;;5014063;28;20026;-80
2021/05/19 06:42:16;;;;;;;3.55;1.02;;;19.40;80.90;;;;;;5013897;28;20087;-76
2021/05/19 06:44:42;;;;;;;4.85;0.65;;;19.60;78.50;;;;;;5013688;28;20022;-81
2021/05/19 06:47:08;;;;;;;4.03;2.03;;;19.60;78.00;;;;;;5013288;28;20030;-83
2021/05/19 06:49:34;;;;;;;7.07;1.90;;;19.70;79.80;;;;;;5013775;28;20348;-82
2021/05/19 06:52:00;;;;;;;5.75;1.33;;;19.90;81.30;;;;;;5013617;28;20160;-81
2021/05/19 06:54:26;;;;;;;5.93;1.00;;;19.90;79.70;;;;;;5014427;28;20101;-83
2021/05/19 06:56:52;;;;;;;4.80;1.73;;;19.90;77.70;;;;;;5013757;28;20026;-83
2021/05/19 06:59:18;;;;;;;3.57;0.90;;;20.00;78.60;;;;;;5013563;28;20368;-78
2021/05/19 07:01:45;;;;;;;6.55;1.00;;;20.00;75.70;;;;;;5013619;28;20296;-84
2021/05/19 07:04:12;;;;;;;7.00;1.95;;;20.00;75.80;;;;;;5013486;28;20022;-83
2021/05/19 07:06:38;;;;;;;15.00;1.50;;;20.00;76.60;;;;;;5013539;28;20392;-82
2021/05/19 07:09:04;;;;;;;10.05;1.88;;;20.10;76.50;;;;;;5013203;28;20099;-80
2021/05/19 07:11:30;;;;;;;6.18;1.00;;;20.20;74.50;;;;;;5013485;28;20021;-82
2021/05/19 07:13:58;;;;;;;4.53;1.00;;;20.20;75.10;;;;;;5013341;28;20114;-83
2021/05/19 07:16:25;;;;;;;1.85;1.02;;;20.10;74.10;;;;;;5013263;28;20038;-82
2021/05/19 07:18:54;;;;;;;4.43;1.40;;;20.10;75.90;;;;;;4995577;28;20034;-82
2021/05/19 07:21:20;;;;;;;4.93;1.08;;;20.20;74.80;;;;;;5013088;28;20446;-83
2021/05/19 07:23:46;;;;;;;2.45;1.08;;;20.10;75.70;;;;;;5013119;28;20026;-82
2021/05/19 07:26:13;;;;;;;4.97;1.52;;;20.10;78.00;;;;;;5013161;28;20053;-77
2021/05/19 07:28:39;;;;;;;8.40;1.50;;;20.20;77.40;;;;;;4995929;28;20025;-82
2021/05/19 07:31:06;;;;;;;5.10;1.75;;;20.20;80.30;;;;;;5013059;28;20026;-83
2021/05/19 07:33:32;;;;;;;6.38;1.13;;;20.30;80.60;;;;;;4995396;28;20034;-83
2021/05/19 07:35:58;;;;;;;2.35;0.90;;;20.40;80.10;;;;;;5013177;28;20053;-78
2021/05/19 07:38:24;;;;;;;2.50;1.20;;;20.40;78.70;;;;;;5029056;28;20045;-82
2021/05/19 07:40:50;;;;;;;7.05;1.17;;;20.50;77.70;;;;;;5013181;28;20034;-83
2021/05/19 07:43:16;;;;;;;2.72;1.33;;;20.40;77.50;;;;;;5012981;28;20038;-83
2021/05/19 07:45:43;;;;;;;3.67;1.27;;;20.40;77.70;;;;;;5013101;28;20026;-83
2021/05/19 07:48:10;;;;;;;5.50;1.30;;;20.40;78.90;;;;;;5013097;28;20033;-83
2021/05/19 07:50:37;;;;;;;3.92;0.77;;;20.50;78.30;;;;;;5012838;28;20025;-83
2021/05/19 07:53:04;;;;;;;3.58;0.98;;;20.60;78.60;;;;;;5012649;28;20055;-82
2021/05/19 08:03:48;;;;;;;10.57;3.75;;;20.80;75.30;;;;;;5012673;28;20018;-82
2021/05/19 08:06:14;;;;;;;10.20;1.70;;;20.90;76.10;;;;;;5012574;28;20379;-83
2021/05/19 08:08:40;;;;;;;4.13;1.75;;;20.90;74.80;;;;;;5012553;28;20129;-79
2021/05/19 08:11:07;;;;;;;4.57;1.03;;;21.00;74.60;;;;;;5012534;28;20156;-80
2021/05/19 08:13:38;;;;;;;5.10;1.75;;;21.10;73.90;;;;;;5012631;28;20034;-82
2021/05/19 08:16:05;;;;;;;5.22;1.77;;;21.20;74.80;;;;;;5012516;28;20117;-77
2021/05/19 08:18:31;;;;;;;7.13;1.70;;;21.20;75.00;;;;;;5012712;28;20018;-83
2021/05/19 08:20:57;;;;;;;3.72;1.30;;;21.30;75.00;;;;;;5012396;28;20033;-83
2021/05/19 08:23:23;;;;;;;5.67;1.87;;;21.40;71.50;;;;;;5012466;28;20034;-82
2021/05/19 08:25:48;;;;;;;4.63;1.40;;;21.50;68.70;;;;;;5012562;28;20022;-83
2021/05/19 08:28:14;;;;;;;7.80;1.70;;;21.50;68.50;;;;;;5012450;28;20391;-84
2021/05/19 08:30:41;;;;;;;3.63;1.83;;;21.50;68.50;;;;;;5012466;28;20084;-83
2021/05/19 08:33:07;;;;;;;6.53;1.20;;;21.60;67.20;;;;;;5012490;28;20293;-82
2021/05/19 08:35:33;;;;;;;5.40;1.90;;;21.70;66.30;;;;;;5012365;28;20025;-83
2021/05/19 08:37:58;;;;;;;7.88;1.83;;;21.70;66.60;;;;;;5012464;28;20158;-78
2021/05/19 08:40:25;;;;;;;4.17;1.53;;;21.90;67.20;;;;;;5012327;28;20455;-84
2021/05/19 08:42:51;;;;;;;8.38;2.40;;;22.00;67.10;;;;;;5012273;28;20280;-83
2021/05/19 08:45:17;;;;;;;2.75;1.23;;;22.20;68.70;;;;;;4994743;28;20433;-83
2021/05/19 08:47:43;;;;;;;6.82;1.30;;;22.30;68.90;;;;;;5018529;28;20026;-83
2021/05/19 08:50:10;;;;;;;3.45;1.58;;;22.50;67.00;;;;;;5022858;28;20105;-84
2021/05/19 08:52:41;;;;;;;4.55;2.25;;;22.50;68.10;;;;;;5012513;28;20382;-83
2021/05/19 08:55:17;;;;;;;5.80;1.98;;;22.70;66.10;;;;;;5012212;28;20037;-81
2021/05/19 08:57:43;;;;;;;7.18;2.17;;;22.80;65.80;;;;;;5012174;28;20026;-83
2021/05/19 09:00:10;;;;;;;7.07;3.88;;;22.90;65.70;;;;;;5012158;28;20029;-82
2021/05/19 09:02:36;;;;;;;5.72;2.35;;;23.00;64.80;;;;;;5012152;28;20042;-81
2021/05/19 09:05:04;;;;;;;5.32;2.45;;;23.20;64.80;;;;;;5012098;28;20030;-81
2021/05/19 09:07:30;;;;;;;4.63;1.75;;;23.20;64.30;;;;;;4994374;28;20062;-80
2021/05/19 09:09:56;;;;;;;4.68;1.30;;;23.20;62.90;;;;;;5014632;28;20034;-76
2021/05/19 09:12:22;;;;;;;2.70;1.23;;;23.30;62.60;;;;;;5015749;28;20033;-81
2021/05/19 09:14:51;;;;;;;6.28;1.23;;;23.30;61.70;;;;;;5015547;28;20033;-82
2021/05/19 09:17:19;;;;;;;3.25;0.88;;;23.50;62.20;;;;;;5015481;28;20478;-76
2021/05/19 09:19:45;;;;;;;2.10;0.75;;;23.20;61.60;;;;;;5015458;28;20037;-82
2021/05/19 09:22:19;;;;;;;1.65;1.10;;;23.10;60.60;;;;;;5015289;28;20060;-82
2021/05/19 09:24:45;;;;;;;2.42;0.95;;;22.90;61.00;;;;;;5015209;28;20034;-77
2021/05/19 09:27:11;;;;;;;5.53;1.30;;;22.90;62.80;;;;;;5015264;28;20419;-76
2021/05/19 09:29:38;;;;;;;2.42;0.75;;;23.00;62.30;;;;;;5015354;28;20109;-81
2021/05/19 09:32:09;;;;;;;4.20;1.23;;;23.30;62.30;;;;;;5015287;28;20025;-81
2021/05/19 09:34:38;;;;;;;1.45;0.65;;;23.50;59.60;;;;;;5015364;28;20040;-81
2021/05/19 09:37:18;;;;;;;1.95;0.70;;;23.70;60.90;;;;;;5015384;28;20033;-82
2021/05/19 09:39:46;;;;;;;3.55;0.90;;;23.90;59.60;;;;;;5015076;28;20501;-77
2021/05/19 09:42:12;;;;;;;2.45;0.82;;;23.90;59.40;;;;;;5014948;28;20038;-83
2021/05/19 09:44:38;;;;;;;2.73;1.10;;;23.80;60.30;;;;;;5015110;28;20076;-82
2021/05/19 09:47:04;;;;;;;2.40;0.95;;;23.90;62.00;;;;;;5015146;28;20033;-83
2021/05/19 09:49:30;;;;;;;1.77;1.07;;;24.10;61.40;;;;;;5015003;28;20022;-83
2021/05/19 09:51:59;;;;;;;2.33;1.13;;;24.00;61.50;;;;;;5015027;28;20308;-83
2021/05/19 09:54:33;;;;;;;4.35;0.90;;;24.30;60.80;;;;;;5014816;28;20268;-82
2021/05/19 09:57:01;;;;;;;2.65;0.93;;;24.60;60.50;;;;;;5015059;28;20088;-79
2021/05/19 09:59:28;;;;;;;2.95;1.48;;;24.60;60.90;;;;;;5030646;28;20014;-83
2021/05/19 10:01:55;;;;;;;5.05;1.45;;;24.70;61.20;;;;;;5014668;28;20037;-83
2021/05/19 10:04:24;;;;;;;4.07;1.92;;;25.00;61.70;;;;;;5014511;28;20499;-76
2021/05/19 10:06:51;;;;;;;2.72;1.13;;;25.20;61.50;;;;;;5014616;28;20068;-77
2021/05/19 10:09:17;;;;;;;2.67;0.80;;;25.20;60.70;;;;;;5014510;28;20077;-77
2021/05/19 10:11:44;;;;;;;3.70;1.58;;;25.60;60.70;;;;;;5014460;28;20092;-80
2021/05/19 10:14:14;;;;;;;2.55;0.95;;;25.80;61.60;;;;;;5014474;28;20037;-82
2021/05/19 10:16:45;;;;;;;8.70;1.77;;;25.90;60.70;;;;;;5014455;28;20034;-83
2021/05/19 10:19:14;;;;;;;1.70;1.20;;;26.00;61.30;;;;;;5014292;28;20505;-83
2021/05/19 10:21:41;;;;;;;2.25;1.23;;;26.10;61.10;;;;;;5013219;28;20124;-82
2021/05/19 10:24:13;;;;;;;4.80;1.80;;;25.60;59.70;;;;;;5014175;28;20376;-83
2021/05/19 10:27:07;;;;;;;6.93;1.48;;;25.70;60.60;;;;;;5014229;28;20068;-83
2021/05/19 10:29:45;;;;;;;8.35;1.73;;;26.00;60.30;;;;;;5014145;28;20088;-82
2021/05/19 10:32:20;;;;;;;5.60;1.75;;;26.30;60.60;;;;;;5014087;28;20057;-83
2021/05/19 10:34:47;;;;;;;1.52;1.00;;;26.70;59.90;;;;;;5014037;28;20157;-82
2021/05/19 10:37:28;;;;;;;5.75;1.40;;;26.80;58.30;;;;;;5014010;28;20080;-83
2021/05/19 10:40:20;;;;;;;2.53;1.33;;;26.80;58.10;;;;;;5013996;28;20105;-79
2021/05/19 10:42:52;;;;;;;5.07;1.45;;;26.60;58.10;;;;;;5011892;28;20125;-82
2021/05/19 10:45:18;;;;;;;;;;;26.90;58.10;;;;;;4996757;28;20033;-83
2021/05/19 10:47:46;;;;;;;2.08;1.00;;;26.30;57.90;;;;;;5013781;28;19955;-83
2021/05/19 10:50:25;;;;;;;2.25;1.00;;;26.00;57.20;;;;;;4996287;28;20514;-82
2021/05/19 10:58:53;;;;;;;3.63;0.80;;;26.30;55.90;;;;;;5013678;28;20471;-81
2021/05/19 11:01:41;;;;;;;2.40;1.17;;;26.50;56.80;;;;;;5013363;28;20073;-83
2021/05/19 11:04:25;;;;;;;2.80;1.15;;;26.90;56.60;;;;;;5013627;28;20382;-82
2021/05/19 11:06:57;;;;;;;2.08;1.20;;;27.30;56.50;;;;;;5013496;28;20058;-83
2021/05/19 11:09:24;;;;;;;2.65;0.98;;;27.50;55.40;;;;;;5025923;28;20065;-82
2021/05/19 11:11:50;;;;;;;4.55;1.58;;;27.60;55.90;;;;;;5018495;28;20145;-77
2021/05/19 11:14:42;;;;;;;5.22;1.40;;;26.90;56.10;;;;;;5013670;28;20134;-77
2021/05/19 11:17:16;;;;;;;2.72;1.20;;;26.90;57.50;;;;;;5013373;28;20113;-82
2021/05/19 11:19:42;;;;;;;3.97;1.65;;;27.20;57.30;;;;;;4995836;28;20440;-82
2021/05/19 11:22:15;;;;;;;4.33;1.00;;;27.50;56.10;;;;;;5013142;28;20026;-83
2021/05/19 11:25:01;;;;;;;5.93;1.53;;;27.70;56.00;;;;;;5013335;28;20025;-82
2021/05/19 11:27:35;;;;;;;5.00;1.85;;;27.70;55.40;;;;;;5013196;28;20108;-82
2021/05/19 11:30:04;;;;;;;4.82;1.77;;;27.50;56.90;;;;;;5013463;28;20033;-82
2021/05/19 11:32:34;;;;;;;;;;;27.50;55.80;;;;;;5013278;28;20092;-82
2021/05/19 11:35:18;;;;;;;2.17;1.10;;;27.60;56.40;;;;;;4995482;28;20462;-82
2021/05/19 11:37:55;;;;;;;2.03;0.98;;;27.90;56.70;;;;;;4995488;28;20021;-83
2021/05/19 11:40:21;;;;;;;5.85;1.10;;;27.80;56.30;;;;;;4995338;28;20553;-81
2021/05/19 11:42:55;;;;;;;2.78;1.25;;;27.10;55.90;;;;;;5012987;28;20049;-78
2021/05/19 11:45:25;;;;;;;6.78;2.05;;;27.20;57.50;;;;;;5012950;28;20097;-83
2021/05/19 11:47:52;;;;;;;2.92;1.10;;;27.60;56.60;;;;;;4995421;28;20025;-82
2021/05/19 11:50:22;;;;;;;4.25;1.10;;;27.60;56.40;;;;;;5012869;28;20026;-83
2021/05/19 11:53:13;;;;;;;4.90;1.15;;;27.30;55.40;;;;;;5012793;28;20061;-83
2021/05/19 11:55:40;;;;;;;2.20;1.08;;;27.40;56.50;;;;;;5012829;28;20387;-83
2021/05/19 11:58:26;;;;;;;3.10;0.98;;;27.80;55.70;;;;;;5012884;28;20022;-82
2021/05/19 12:01:03;;;;;;;1.80;0.88;;;28.00;55.50;;;;;;4995048;28;20037;-83
2021/05/19 12:03:31;;;;;;;2.58;1.00;;;28.20;55.70;;;;;;4995062;28;20038;-82
2021/05/19 12:06:01;;;;;;;6.43;1.30;;;28.40;54.70;;;;;;5012703;28;20026;-82
2021/05/19 12:08:33;;;;;;;3.38;1.10;;;28.50;55.50;;;;;;5012460;28;20406;-82
2021/05/19 12:11:14;;;;;;;2.65;1.20;;;28.60;55.50;;;;;;5012647;28;20026;-82
2021/05/19 12:13:45;;;;;;;6.93;1.20;;;28.30;54.90;;;;;;5012782;28;20062;-83
2021/05/19 12:16:18;;;;;;;2.05;0.85;;;28.10;55.20;;;;;;4995084;28;20026;-77
2021/05/19 12:19:25;;;;;;;1.55;0.82;;;28.40;55.00;;;;;;5013595;28;20026;-81
2021/05/19 12:22:05;;;;;;;2.90;1.00;;;28.30;56.50;;;;;;5016295;28;20046;-82
2021/05/19 12:24:31;;;;;;;3.45;1.20;;;27.70;56.10;;;;;;5012573;28;20113;-79
2021/05/19 12:26:57;;;;;;;3.35;1.30;;;27.60;57.20;;;;;;5012570;28;20034;-83
2021/05/19 12:29:35;;;;;;;2.90;1.35;;;27.60;57.00;;;;;;5012503;28;20037;-83
2021/05/19 12:32:19;;;;;;;3.35;1.13;;;27.60;57.80;;;;;;5012495;28;20545;-82
2021/05/19 12:35:07;;;;;;;4.88;1.70;;;27.90;57.70;;;;;;5012422;28;20060;-80
2021/05/19 12:37:48;;;;;;;2.92;0.98;;;27.90;57.60;;;;;;4987911;28;20046;-82
2021/05/19 12:40:19;;;;;;;2.72;1.25;;;27.80;57.60;;;;;;5012338;28;20395;-82
2021/05/19 12:42:55;;;;;;;1.48;0.98;;;27.60;58.10;;;;;;5012300;28;20069;-78
2021/05/19 12:45:33;;;;;;;4.25;1.33;;;27.90;58.00;;;;;;5015585;28;20026;-77
2021/05/19 12:48:10;;;;;;;4.55;1.13;;;27.10;59.50;;;;;;5016250;28;20510;-82
2021/05/19 12:50:39;;;;;;;2.35;1.27;;;26.70;59.60;;;;;;5016093;28;20124;-82
2021/05/19 12:53:06;;;;;;;2.30;1.10;;;26.90;60.00;;;;;;5015931;28;20088;-81
2021/05/19 12:55:32;;;;;;;3.35;1.50;;;26.90;60.10;;;;;;5016094;28;20556;-83
2021/05/19 12:58:09;;;;;;;4.90;1.92;;;26.80;60.20;;;;;;4998527;28;20030;-82
2021/05/19 13:00:52;;;;;;;2.35;0.93;;;27.10;60.40;;;;;;5015857;28;20375;-79
2021/05/19 13:03:37;;;;;;;2.35;1.20;;;27.00;59.60;;;;;;5015692;28;20036;-82
2021/05/19 13:06:05;;;;;;;4.13;1.98;;;27.20;60.10;;;;;;5015830;28;20434;-82
2021/05/19 13:08:32;;;;;;;4.35;1.92;;;27.40;60.00;;;;;;5015719;28;20050;-83
2021/05/19 13:10:59;;;;;;;4.00;1.67;;;27.60;59.70;;;;;;5015651;28;20106;-82